Terminal Aerodrome Forecast
Issued by NWS

Home | Current Version | Previous Version | Text Only | Print | Product List | Glossary On
Versions: 1 2 3 4 5 6 7 8 9 10 11 12 13 14
000
FTUS42 TJSJ 231152
TAFIST
TAF
TIST 231152Z 2312/2412 07007KT P6SM OVC019
     FM231300 13015KT P6SM FEW030 FEW050
     FM232300 08008KT P6SM FEW025=

USA.gov is the U.S. government's official web portal to all federal, state and local government web resources and services.